sensor_id;sensor_type;location;lat;lon;timestamp;temperature;humidity
14769;DHT22;7476;49.404;11.152;2023-03-21T00:02:02;7.60;99.90
14769;DHT22;7476;49.404;11.152;2023-03-21T00:04:29;7.70;99.90
14769;DHT22;7476;49.404;11.152;2023-03-21T00:06:56;7.70;99.90
14769;DHT22;7476;49.404;11.152;2023-03-21T00:09:22;7.60;99.90
14769;DHT22;7476;49.404;11.152;2023-03-21T00:11:50;7.50;99.90
14769;DHT22;7476;49.404;11.152;2023-03-21T00:14:17;7.40;99.90
14769;DHT22;7476;49.404;11.152;2023-03-21T00:16:44;7.30;99.90
14769;DHT22;7476;49.404;11.152;2023-03-21T00:19:15;7.30;99.90
14769;DHT22;7476;49.404;11.152;2023-03-21T00:21:42;7.20;99.90
14769;DHT22;7476;49.404;11.152;2023-03-21T00:24:10;7.10;99.90
14769;DHT22;7476;49.404;11.152;2023-03-21T00:26:36;6.90;99.90
14769;DHT22;7476;49.404;11.152;2023-03-21T00:29:04;6.80;99.90
14769;DHT22;7476;49.404;11.152;2023-03-21T00:31:31;6.80;99.90
14769;DHT22;7476;49.404;11.152;2023-03-21T00:33:58;6.70;99.90
14769;DHT22;7476;49.404;11.152;2023-03-21T00:36:25;6.70;99.90
14769;DHT22;7476;49.404;11.152;2023-03-21T00:38:53;6.70;99.90
14769;DHT22;7476;49.404;11.152;2023-03-21T00:41:19;6.70;99.90
14769;DHT22;7476;49.404;11.152;2023-03-21T00:43:46;6.70;99.90
14769;DHT22;7476;49.404;11.152;2023-03-21T00:46:14;6.70;99.90
14769;DHT22;7476;49.404;11.152;2023-03-21T00:48:41;6.70;99.90
14769;DHT22;7476;49.404;11.152;2023-03-21T00:51:11;6.70;99.90
14769;DHT22;7476;49.404;11.152;2023-03-21T00:53:40;6.70;99.90
14769;DHT22;7476;49.404;11.152;2023-03-21T00:56:09;6.70;99.90
14769;DHT22;7476;49.404;11.152;2023-03-21T00:58:36;6.80;99.90
14769;DHT22;7476;49.404;11.152;2023-03-21T01:01:03;6.80;99.90
14769;DHT22;7476;49.404;11.152;2023-03-21T01:03:32;6.80;99.90
14769;DHT22;7476;49.404;11.152;2023-03-21T01:06:08;6.60;99.90
14769;DHT22;7476;49.404;11.152;2023-03-21T01:08:39;6.50;99.90
14769;DHT22;7476;49.404;11.152;2023-03-21T01:11:08;6.30;99.90
14769;DHT22;7476;49.404;11.152;2023-03-21T01:13:34;6.20;99.90
14769;DHT22;7476;49.404;11.152;2023-03-21T01:16:03;6.00;99.90
14769;DHT22;7476;49.404;11.152;2023-03-21T01:18:33;5.90;99.90
14769;DHT22;7476;49.404;11.152;2023-03-21T01:21:01;5.80;99.90
14769;DHT22;7476;49.404;11.152;2023-03-21T01:23:30;5.80;99.90
14769;DHT22;7476;49.404;11.152;2023-03-21T01:25:57;5.80;99.90
14769;DHT22;7476;49.404;11.152;2023-03-21T01:28:26;5.70;99.90
14769;DHT22;7476;49.404;11.152;2023-03-21T01:30:54;5.60;99.90
14769;DHT22;7476;49.404;11.152;2023-03-21T01:33:21;5.50;99.90
14769;DHT22;7476;49.404;11.152;2023-03-21T01:35:49;5.50;99.90
14769;DHT22;7476;49.404;11.152;2023-03-21T01:38:16;5.50;99.90
14769;DHT22;7476;49.404;11.152;2023-03-21T01:40:44;5.60;99.90
14769;DHT22;7476;49.404;11.152;2023-03-21T01:43:20;5.60;99.90
14769;DHT22;7476;49.404;11.152;2023-03-21T01:46:23;5.60;99.90
14769;DHT22;7476;49.404;11.152;2023-03-21T01:48:55;5.60;99.90
14769;DHT22;7476;49.404;11.152;2023-03-21T01:51:25;5.50;99.90
14769;DHT22;7476;49.404;11.152;2023-03-21T01:53:53;5.60;99.90
14769;DHT22;7476;49.404;11.152;2023-03-21T01:56:24;5.50;99.90
14769;DHT22;7476;49.404;11.152;2023-03-21T01:58:53;5.50;99.90
14769;DHT22;7476;49.404;11.152;2023-03-21T02:01:22;5.50;99.90
14769;DHT22;7476;49.404;11.152;2023-03-21T02:03:50;5.50;99.90
14769;DHT22;7476;49.404;11.152;2023-03-21T02:06:31;5.50;99.90
14769;DHT22;7476;49.404;11.152;2023-03-21T02:09:01;5.50;99.90
14769;DHT22;7476;49.404;11.152;2023-03-21T02:11:29;5.50;99.90
14769;DHT22;7476;49.404;11.152;2023-03-21T02:13:57;5.50;99.90
14769;DHT22;7476;49.404;11.152;2023-03-21T02:16:30;5.50;99.90
14769;DHT22;7476;49.404;11.152;2023-03-21T02:22:09;5.40;99.90
14769;DHT22;7476;49.404;11.152;2023-03-21T02:25:06;5.40;99.90
14769;DHT22;7476;49.404;11.152;2023-03-21T02:27:45;5.40;99.90
14769;DHT22;7476;49.404;11.152;2023-03-21T02:30:40;5.30;99.90
14769;DHT22;7476;49.404;11.152;2023-03-21T02:33:38;5.30;99.90
14769;DHT22;7476;49.404;11.152;2023-03-21T02:36:22;5.30;99.90
14769;DHT22;7476;49.404;11.152;2023-03-21T02:38:54;5.20;99.90
14769;DHT22;7476;49.404;11.152;2023-03-21T02:41:31;5.10;99.90
14769;DHT22;7476;49.404;11.152;2023-03-21T02:44:05;5.00;99.90
14769;DHT22;7476;49.404;11.152;2023-03-21T02:46:37;5.00;99.90
14769;DHT22;7476;49.404;11.152;2023-03-21T02:49:08;5.00;99.90
14769;DHT22;7476;49.404;11.152;2023-03-21T02:51:38;5.00;99.90
14769;DHT22;7476;49.404;11.152;2023-03-21T02:54:11;5.00;99.90
14769;DHT22;7476;49.404;11.152;2023-03-21T02:56:39;5.10;99.90
14769;DHT22;7476;49.404;11.152;2023-03-21T02:59:07;5.10;99.90
14769;DHT22;7476;49.404;11.152;2023-03-21T03:01:35;5.10;99.90
14769;DHT22;7476;49.404;11.152;2023-03-21T03:04:01;5.20;99.90
14769;DHT22;7476;49.404;11.152;2023-03-21T03:06:31;5.30;99.90
14769;DHT22;7476;49.404;11.152;2023-03-21T03:09:14;5.30;99.90
14769;DHT22;7476;49.404;11.152;2023-03-21T03:11:45;5.40;99.90
14769;DHT22;7476;49.404;11.152;2023-03-21T03:14:26;5.50;99.90
14769;DHT22;7476;49.404;11.152;2023-03-21T03:17:08;5.50;99.90
14769;DHT22;7476;49.404;11.152;2023-03-21T03:19:45;5.60;99.90
14769;DHT22;7476;49.404;11.152;2023-03-21T03:22:17;5.50;99.90
14769;DHT22;7476;49.404;11.152;2023-03-21T03:24:54;5.50;99.90
14769;DHT22;7476;49.404;11.152;2023-03-21T03:27:25;5.50;99.90
14769;DHT22;7476;49.404;11.152;2023-03-21T03:29:54;5.50;99.90
14769;DHT22;7476;49.404;11.152;2023-03-21T03:32:25;5.60;99.90
14769;DHT22;7476;49.404;11.152;2023-03-21T03:34:55;5.50;99.90
14769;DHT22;7476;49.404;11.152;2023-03-21T03:37:24;5.50;99.90
14769;DHT22;7476;49.404;11.152;2023-03-21T03:39:57;5.50;99.90
14769;DHT22;7476;49.404;11.152;2023-03-21T03:42:28;5.50;99.90
14769;DHT22;7476;49.404;11.152;2023-03-21T03:44:57;5.50;99.90
14769;DHT22;7476;49.404;11.152;2023-03-21T03:47:29;5.50;99.90
14769;DHT22;7476;49.404;11.152;2023-03-21T03:50:03;5.50;99.90
14769;DHT22;7476;49.404;11.152;2023-03-21T03:52:36;5.50;99.90
14769;DHT22;7476;49.404;11.152;2023-03-21T03:55:08;5.50;99.90
14769;DHT22;7476;49.404;11.152;2023-03-21T03:57:35;5.50;99.90
14769;DHT22;7476;49.404;11.152;2023-03-21T04:00:02;5.50;99.90
14769;DHT22;7476;49.404;11.152;2023-03-21T04:02:30;5.60;99.90
14769;DHT22;7476;49.404;11.152;2023-03-21T04:04:57;5.60;99.90
14769;DHT22;7476;49.404;11.152;2023-03-21T04:07:24;5.60;99.90
14769;DHT22;7476;49.404;11.152;2023-03-21T04:09:50;5.60;99.90
14769;DHT22;7476;49.404;11.152;2023-03-21T04:12:18;5.60;99.90
14769;DHT22;7476;49.404;11.152;2023-03-21T04:14:45;5.50;99.90
14769;DHT22;7476;49.404;11.152;2023-03-21T04:17:12;5.50;99.90
14769;DHT22;7476;49.404;11.152;2023-03-21T04:19:39;5.30;99.90
14769;DHT22;7476;49.404;11.152;2023-03-21T04:22:05;5.10;99.90
14769;DHT22;7476;49.404;11.152;2023-03-21T04:24:32;5.00;99.90
14769;DHT22;7476;49.404;11.152;2023-03-21T04:27:02;4.80;99.90
14769;DHT22;7476;49.404;11.152;2023-03-21T04:29:31;4.60;99.90
14769;DHT22;7476;49.404;11.152;2023-03-21T04:31:58;4.40;99.90
14769;DHT22;7476;49.404;11.152;2023-03-21T04:34:25;4.30;99.90
14769;DHT22;7476;49.404;11.152;2023-03-21T04:36:53;4.10;99.90
14769;DHT22;7476;49.404;11.152;2023-03-21T04:39:20;3.90;99.90
14769;DHT22;7476;49.404;11.152;2023-03-21T04:41:47;3.80;99.90
14769;DHT22;7476;49.404;11.152;2023-03-21T04:44:14;3.80;99.90
14769;DHT22;7476;49.404;11.152;2023-03-21T04:46:43;3.70;99.90
14769;DHT22;7476;49.404;11.152;2023-03-21T04:49:10;3.70;99.90
14769;DHT22;7476;49.404;11.152;2023-03-21T04:51:37;3.70;99.90
14769;DHT22;7476;49.404;11.152;2023-03-21T04:54:04;3.60;99.90
14769;DHT22;7476;49.404;11.152;2023-03-21T04:56:31;3.50;99.90
14769;DHT22;7476;49.404;11.152;2023-03-21T04:58:59;3.50;99.90
14769;DHT22;7476;49.404;11.152;2023-03-21T05:01:26;3.50;99.90
14769;DHT22;7476;49.404;11.152;2023-03-21T05:03:57;3.50;99.90
14769;DHT22;7476;49.404;11.152;2023-03-21T05:06:23;3.60;99.90
14769;DHT22;7476;49.404;11.152;2023-03-21T05:08:50;3.50;99.90
14769;DHT22;7476;49.404;11.152;2023-03-21T05:11:17;3.60;99.90
14769;DHT22;7476;49.404;11.152;2023-03-21T05:13:44;3.60;99.90
14769;DHT22;7476;49.404;11.152;2023-03-21T05:16:11;3.80;99.90
14769;DHT22;7476;49.404;11.152;2023-03-21T05:18:37;3.90;99.90
14769;DHT22;7476;49.404;11.152;2023-03-21T05:21:06;3.90;99.90
14769;DHT22;7476;49.404;11.152;2023-03-21T05:23:35;4.00;99.90
14769;DHT22;7476;49.404;11.152;2023-03-21T05:26:04;4.00;99.90
14769;DHT22;7476;49.404;11.152;2023-03-21T05:28:30;4.10;99.90
14769;DHT22;7476;49.404;11.152;2023-03-21T05:31:00;4.10;99.90
14769;DHT22;7476;49.404;11.152;2023-03-21T05:33:27;4.20;99.90
14769;DHT22;7476;49.404;11.152;2023-03-21T05:35:53;4.30;99.90
14769;DHT22;7476;49.404;11.152;2023-03-21T05:38:21;4.40;99.90
14769;DHT22;7476;49.404;11.152;2023-03-21T05:40:50;4.50;99.90
14769;DHT22;7476;49.404;11.152;2023-03-21T05:43:16;4.50;99.90
14769;DHT22;7476;49.404;11.152;2023-03-21T05:45:43;4.60;99.90
14769;DHT22;7476;49.404;11.152;2023-03-21T05:48:10;4.70;99.90
14769;DHT22;7476;49.404;11.152;2023-03-21T05:50:38;4.80;99.90
14769;DHT22;7476;49.404;11.152;2023-03-21T05:53:05;4.80;99.90
14769;DHT22;7476;49.404;11.152;2023-03-21T05:55:33;5.00;99.90
14769;DHT22;7476;49.404;11.152;2023-03-21T05:57:59;5.10;99.90
14769;DHT22;7476;49.404;11.152;2023-03-21T06:00:26;5.20;99.90
14769;DHT22;7476;49.404;11.152;2023-03-21T06:02:53;5.40;99.90
14769;DHT22;7476;49.404;11.152;2023-03-21T06:05:19;5.50;99.90
14769;DHT22;7476;49.404;11.152;2023-03-21T06:07:46;5.60;99.90
14769;DHT22;7476;49.404;11.152;2023-03-21T06:10:13;5.70;99.90
14769;DHT22;7476;49.404;11.152;2023-03-21T06:12:41;5.90;99.90
14769;DHT22;7476;49.404;11.152;2023-03-21T06:15:09;6.00;99.90
14769;DHT22;7476;49.404;11.152;2023-03-21T06:17:36;6.20;99.90
14769;DHT22;7476;49.404;11.152;2023-03-21T06:20:03;6.30;99.90
14769;DHT22;7476;49.404;11.152;2023-03-21T06:22:32;6.40;99.90
14769;DHT22;7476;49.404;11.152;2023-03-21T06:24:58;6.50;99.90
14769;DHT22;7476;49.404;11.152;2023-03-21T06:27:26;6.60;99.90
14769;DHT22;7476;49.404;11.152;2023-03-21T06:29:54;6.70;99.90
14769;DHT22;7476;49.404;11.152;2023-03-21T06:32:22;6.90;99.90
14769;DHT22;7476;49.404;11.152;2023-03-21T06:34:49;7.20;99.90
14769;DHT22;7476;49.404;11.152;2023-03-21T06:37:16;7.40;99.90
14769;DHT22;7476;49.404;11.152;2023-03-21T06:39:42;7.60;99.90
14769;DHT22;7476;49.404;11.152;2023-03-21T06:42:09;7.80;99.90
14769;DHT22;7476;49.404;11.152;2023-03-21T06:44:36;8.00;99.90
14769;DHT22;7476;49.404;11.152;2023-03-21T06:47:04;8.20;99.90
14769;DHT22;7476;49.404;11.152;2023-03-21T06:49:31;8.40;99.90
14769;DHT22;7476;49.404;11.152;2023-03-21T06:51:58;8.60;99.90
14769;DHT22;7476;49.404;11.152;2023-03-21T06:54:25;8.60;99.90
14769;DHT22;7476;49.404;11.152;2023-03-21T06:56:52;8.80;99.90
14769;DHT22;7476;49.404;11.152;2023-03-21T06:59:18;8.90;99.90
14769;DHT22;7476;49.404;11.152;2023-03-21T07:01:46;9.10;99.90
14769;DHT22;7476;49.404;11.152;2023-03-21T07:04:14;9.30;99.90
14769;DHT22;7476;49.404;11.152;2023-03-21T07:06:42;9.50;99.90
14769;DHT22;7476;49.404;11.152;2023-03-21T07:09:08;9.60;99.90
14769;DHT22;7476;49.404;11.152;2023-03-21T07:11:36;9.70;99.90
14769;DHT22;7476;49.404;11.152;2023-03-21T07:14:02;9.90;99.90
14769;DHT22;7476;49.404;11.152;2023-03-21T07:16:29;9.90;99.90
14769;DHT22;7476;49.404;11.152;2023-03-21T07:18:56;9.90;99.90
14769;DHT22;7476;49.404;11.152;2023-03-21T07:21:24;9.90;99.90
14769;DHT22;7476;49.404;11.152;2023-03-21T07:23:50;10.10;99.90
14769;DHT22;7476;49.404;11.152;2023-03-21T07:26:17;10.30;99.90
14769;DHT22;7476;49.404;11.152;2023-03-21T07:28:45;10.40;99.90
14769;DHT22;7476;49.404;11.152;2023-03-21T07:31:14;10.50;99.90
14769;DHT22;7476;49.404;11.152;2023-03-21T07:33:41;10.80;99.90
14769;DHT22;7476;49.404;11.152;2023-03-21T07:36:09;11.20;99.90
14769;DHT22;7476;49.404;11.152;2023-03-21T07:38:38;11.40;99.90
14769;DHT22;7476;49.404;11.152;2023-03-21T07:41:05;11.60;99.90
14769;DHT22;7476;49.404;11.152;2023-03-21T07:43:32;11.80;99.90
14769;DHT22;7476;49.404;11.152;2023-03-21T07:45:59;11.80;99.90
14769;DHT22;7476;49.404;11.152;2023-03-21T07:48:26;11.70;99.90
14769;DHT22;7476;49.404;11.152;2023-03-21T07:50:53;11.80;99.90
14769;DHT22;7476;49.404;11.152;2023-03-21T07:53:20;11.80;99.90
14769;DHT22;7476;49.404;11.152;2023-03-21T07:55:49;12.00;99.90
14769;DHT22;7476;49.404;11.152;2023-03-21T07:58:16;12.40;99.90
14769;DHT22;7476;49.404;11.152;2023-03-21T08:00:43;12.70;99.90
14769;DHT22;7476;49.404;11.152;2023-03-21T08:03:10;12.70;99.90
14769;DHT22;7476;49.404;11.152;2023-03-21T08:05:38;12.70;99.90
14769;DHT22;7476;49.404;11.152;2023-03-21T08:08:06;12.70;99.90
14769;DHT22;7476;49.404;11.152;2023-03-21T08:10:33;13.20;99.90
14769;DHT22;7476;49.404;11.152;2023-03-21T08:13:01;13.50;99.90
14769;DHT22;7476;49.404;11.152;2023-03-21T08:15:28;13.70;99.90
14769;DHT22;7476;49.404;11.152;2023-03-21T08:17:57;14.00;99.90
14769;DHT22;7476;49.404;11.152;2023-03-21T08:20:24;14.20;99.90
14769;DHT22;7476;49.404;11.152;2023-03-21T08:22:51;14.40;99.90
14769;DHT22;7476;49.404;11.152;2023-03-21T08:25:20;14.20;99.90
14769;DHT22;7476;49.404;11.152;2023-03-21T08:27:48;14.10;99.90
14769;DHT22;7476;49.404;11.152;2023-03-21T08:30:19;14.40;99.90
14769;DHT22;7476;49.404;11.152;2023-03-21T08:32:47;14.50;99.90
14769;DHT22;7476;49.404;11.152;2023-03-21T08:35:15;14.50;99.90
14769;DHT22;7476;49.404;11.152;2023-03-21T08:37:43;14.50;99.90
14769;DHT22;7476;49.404;11.152;2023-03-21T08:40:12;14.70;99.90
14769;DHT22;7476;49.404;11.152;2023-03-21T08:42:40;15.40;99.90
14769;DHT22;7476;49.404;11.152;2023-03-21T08:45:08;15.90;99.90
14769;DHT22;7476;49.404;11.152;2023-03-21T08:47:37;16.20;99.90
14769;DHT22;7476;49.404;11.152;2023-03-21T08:50:05;16.40;99.90
14769;DHT22;7476;49.404;11.152;2023-03-21T08:52:32;16.50;99.90
14769;DHT22;7476;49.404;11.152;2023-03-21T08:54:59;16.50;99.90
14769;DHT22;7476;49.404;11.152;2023-03-21T08:57:26;16.20;99.90
14769;DHT22;7476;49.404;11.152;2023-03-21T08:59:53;16.30;99.90
14769;DHT22;7476;49.404;11.152;2023-03-21T09:02:20;16.20;99.90
14769;DHT22;7476;49.404;11.152;2023-03-21T09:04:48;16.30;99.90
14769;DHT22;7476;49.404;11.152;2023-03-21T09:07:17;16.50;99.90
14769;DHT22;7476;49.404;11.152;2023-03-21T09:09:44;16.10;99.90
14769;DHT22;7476;49.404;11.152;2023-03-21T09:12:11;15.70;99.90
14769;DHT22;7476;49.404;11.152;2023-03-21T09:14:38;15.80;99.90
14769;DHT22;7476;49.404;11.152;2023-03-21T09:17:05;15.80;99.90
14769;DHT22;7476;49.404;11.152;2023-03-21T09:19:32;16.00;99.90
14769;DHT22;7476;49.404;11.152;2023-03-21T09:22:01;16.10;99.90
14769;DHT22;7476;49.404;11.152;2023-03-21T09:24:30;16.10;99.90
14769;DHT22;7476;49.404;11.152;2023-03-21T09:26:57;16.00;99.90
14769;DHT22;7476;49.404;11.152;2023-03-21T09:29:23;16.20;99.90
14769;DHT22;7476;49.404;11.152;2023-03-21T09:31:50;16.20;99.90
14769;DHT22;7476;49.404;11.152;2023-03-21T09:34:18;16.20;99.90
14769;DHT22;7476;49.404;11.152;2023-03-21T09:36:45;16.30;99.90
14769;DHT22;7476;49.404;11.152;2023-03-21T09:39:14;16.10;99.90
14769;DHT22;7476;49.404;11.152;2023-03-21T09:42:10;16.00;99.90
14769;DHT22;7476;49.404;11.152;2023-03-21T09:44:47;16.20;99.90
14769;DHT22;7476;49.404;11.152;2023-03-21T09:47:20;16.00;99.90
14769;DHT22;7476;49.404;11.152;2023-03-21T09:49:52;15.80;99.90
14769;DHT22;7476;49.404;11.152;2023-03-21T09:52:25;15.70;99.90
14769;DHT22;7476;49.404;11.152;2023-03-21T09:54:55;15.90;99.90
14769;DHT22;7476;49.404;11.152;2023-03-21T09:57:28;16.10;99.90
14769;DHT22;7476;49.404;11.152;2023-03-21T09:59:58;16.10;99.90
14769;DHT22;7476;49.404;11.152;2023-03-21T10:02:34;16.20;99.90
14769;DHT22;7476;49.404;11.152;2023-03-21T10:05:10;16.10;99.90
14769;DHT22;7476;49.404;11.152;2023-03-21T10:07:40;16.20;99.90
14769;DHT22;7476;49.404;11.152;2023-03-21T10:10:14;16.40;99.90
14769;DHT22;7476;49.404;11.152;2023-03-21T10:12:43;16.50;99.90
14769;DHT22;7476;49.404;11.152;2023-03-21T10:15:15;16.70;99.90
14769;DHT22;7476;49.404;11.152;2023-03-21T10:17:45;16.70;99.90
14769;DHT22;7476;49.404;11.152;2023-03-21T10:20:16;16.90;99.90
14769;DHT22;7476;49.404;11.152;2023-03-21T10:22:43;17.00;99.90
14769;DHT22;7476;49.404;11.152;2023-03-21T10:25:15;16.80;99.90
14769;DHT22;7476;49.404;11.152;2023-03-21T10:27:42;16.70;99.90
14769;DHT22;7476;49.404;11.152;2023-03-21T10:30:20;16.80;99.90
14769;DHT22;7476;49.404;11.152;2023-03-21T10:32:51;16.50;99.90
14769;DHT22;7476;49.404;11.152;2023-03-21T10:35:18;16.60;99.90
14769;DHT22;7476;49.404;11.152;2023-03-21T10:37:45;16.70;99.90
14769;DHT22;7476;49.404;11.152;2023-03-21T10:40:15;16.80;99.90
14769;DHT22;7476;49.404;11.152;2023-03-21T10:42:42;16.40;99.90
14769;DHT22;7476;49.404;11.152;2023-03-21T10:45:15;16.80;99.90
14769;DHT22;7476;49.404;11.152;2023-03-21T10:47:46;17.10;99.90
14769;DHT22;7476;49.404;11.152;2023-03-21T10:50:15;17.40;99.90
14769;DHT22;7476;49.404;11.152;2023-03-21T10:52:45;17.30;99.90
14769;DHT22;7476;49.404;11.152;2023-03-21T10:55:20;17.30;99.90
14769;DHT22;7476;49.404;11.152;2023-03-21T10:57:52;17.80;99.90
14769;DHT22;7476;49.404;11.152;2023-03-21T11:00:22;18.00;99.90
14769;DHT22;7476;49.404;11.152;2023-03-21T11:02:51;18.30;99.90
14769;DHT22;7476;49.404;11.152;2023-03-21T11:05:20;18.80;99.90
14769;DHT22;7476;49.404;11.152;2023-03-21T11:07:58;18.70;99.60
14769;DHT22;7476;49.404;11.152;2023-03-21T11:10:30;18.90;99.90
14769;DHT22;7476;49.404;11.152;2023-03-21T11:13:02;18.70;99.90
14769;DHT22;7476;49.404;11.152;2023-03-21T11:15:33;18.70;99.60
14769;DHT22;7476;49.404;11.152;2023-03-21T11:18:13;18.80;99.90
14769;DHT22;7476;49.404;11.152;2023-03-21T11:20:47;19.10;99.90
14769;DHT22;7476;49.404;11.152;2023-03-21T11:23:15;19.50;99.90
14769;DHT22;7476;49.404;11.152;2023-03-21T11:25:43;19.50;99.30
14769;DHT22;7476;49.404;11.152;2023-03-21T11:28:15;19.40;99.60
14769;DHT22;7476;49.404;11.152;2023-03-21T11:30:50;19.80;99.90
14769;DHT22;7476;49.404;11.152;2023-03-21T11:33:19;19.90;99.30
14769;DHT22;7476;49.404;11.152;2023-03-21T11:36:00;19.80;99.90
14769;DHT22;7476;49.404;11.152;2023-03-21T11:38:30;19.60;99.90
14769;DHT22;7476;49.404;11.152;2023-03-21T11:41:00;19.90;99.90
14769;DHT22;7476;49.404;11.152;2023-03-21T11:43:30;20.00;99.40
14769;DHT22;7476;49.404;11.152;2023-03-21T11:45:59;20.10;99.50
14769;DHT22;7476;49.404;11.152;2023-03-21T11:48:26;19.40;99.90
14769;DHT22;7476;49.404;11.152;2023-03-21T11:50:59;19.30;99.90
14769;DHT22;7476;49.404;11.152;2023-03-21T11:53:36;20.10;99.80
14769;DHT22;7476;49.404;11.152;2023-03-21T11:56:18;20.60;99.20
14769;DHT22;7476;49.404;11.152;2023-03-21T11:58:58;21.40;97.40
14769;DHT22;7476;49.404;11.152;2023-03-21T12:01:33;21.50;98.20
14769;DHT22;7476;49.404;11.152;2023-03-21T12:04:06;22.00;96.90
14769;DHT22;7476;49.404;11.152;2023-03-21T12:06:39;21.90;96.90
14769;DHT22;7476;49.404;11.152;2023-03-21T12:09:16;22.00;95.70
14769;DHT22;7476;49.404;11.152;2023-03-21T12:11:55;22.50;95.80
14769;DHT22;7476;49.404;11.152;2023-03-21T12:14:30;22.10;95.80
14769;DHT22;7476;49.404;11.152;2023-03-21T12:17:05;22.20;95.80
14769;DHT22;7476;49.404;11.152;2023-03-21T12:19:52;21.90;95.70
14769;DHT22;7476;49.404;11.152;2023-03-21T12:22:27;22.10;95.10
14769;DHT22;7476;49.404;11.152;2023-03-21T12:24:56;22.70;93.90
14769;DHT22;7476;49.404;11.152;2023-03-21T12:27:33;22.70;93.90
14769;DHT22;7476;49.404;11.152;2023-03-21T12:30:28;22.30;94.70
14769;DHT22;7476;49.404;11.152;2023-03-21T12:33:10;22.30;94.90
14769;DHT22;7476;49.404;11.152;2023-03-21T12:35:48;22.20;94.80
14769;DHT22;7476;49.404;11.152;2023-03-21T12:38:21;22.30;94.70
14769;DHT22;7476;49.404;11.152;2023-03-21T12:43:53;22.40;93.20
14769;DHT22;7476;49.404;11.152;2023-03-21T12:46:25;21.40;95.10
14769;DHT22;7476;49.404;11.152;2023-03-21T12:48:56;21.30;95.20
14769;DHT22;7476;49.404;11.152;2023-03-21T12:51:28;21.90;95.60
14769;DHT22;7476;49.404;11.152;2023-03-21T12:54:01;21.80;95.80
14769;DHT22;7476;49.404;11.152;2023-03-21T12:56:32;22.20;95.20
14769;DHT22;7476;49.404;11.152;2023-03-21T12:59:07;23.20;94.60
14769;DHT22;7476;49.404;11.152;2023-03-21T13:01:38;23.30;93.70
14769;DHT22;7476;49.404;11.152;2023-03-21T13:04:15;24.50;92.60
14769;DHT22;7476;49.404;11.152;2023-03-21T13:06:48;25.00;91.70
14769;DHT22;7476;49.404;11.152;2023-03-21T13:09:21;24.30;91.50
14769;DHT22;7476;49.404;11.152;2023-03-21T13:11:51;24.10;92.40
14769;DHT22;7476;49.404;11.152;2023-03-21T13:14:27;22.90;92.80
14769;DHT22;7476;49.404;11.152;2023-03-21T13:16:58;21.80;94.50
14769;DHT22;7476;49.404;11.152;2023-03-21T13:19:31;22.20;94.10
14769;DHT22;7476;49.404;11.152;2023-03-21T13:22:06;22.20;94.20
14769;DHT22;7476;49.404;11.152;2023-03-21T13:24:40;22.60;94.00
14769;DHT22;7476;49.404;11.152;2023-03-21T13:27:17;23.10;93.40
14769;DHT22;7476;49.404;11.152;2023-03-21T13:29:50;23.20;93.20
14769;DHT22;7476;49.404;11.152;2023-03-21T13:32:24;22.60;93.40
14769;DHT22;7476;49.404;11.152;2023-03-21T13:34:55;22.50;93.90
14769;DHT22;7476;49.404;11.152;2023-03-21T13:37:24;22.20;93.80
14769;DHT22;7476;49.404;11.152;2023-03-21T13:39:52;22.80;93.30
14769;DHT22;7476;49.404;11.152;2023-03-21T13:42:23;23.10;92.80
14769;DHT22;7476;49.404;11.152;2023-03-21T13:44:59;23.40;92.70
14769;DHT22;7476;49.404;11.152;2023-03-21T13:47:37;23.70;92.80
14769;DHT22;7476;49.404;11.152;2023-03-21T13:53:23;23.70;92.10
14769;DHT22;7476;49.404;11.152;2023-03-21T13:59:00;23.50;92.10
14769;DHT22;7476;49.404;11.152;2023-03-21T14:01:35;23.30;91.50
14769;DHT22;7476;49.404;11.152;2023-03-21T14:04:09;23.00;92.30
14769;DHT22;7476;49.404;11.152;2023-03-21T14:06:44;23.20;91.70
14769;DHT22;7476;49.404;11.152;2023-03-21T14:09:18;22.70;92.30
14769;DHT22;7476;49.404;11.152;2023-03-21T14:11:46;22.20;92.80
14769;DHT22;7476;49.404;11.152;2023-03-21T14:14:13;21.90;93.80
14769;DHT22;7476;49.404;11.152;2023-03-21T14:16:43;21.60;93.40
14769;DHT22;7476;49.404;11.152;2023-03-21T14:19:10;21.10;94.80
14769;DHT22;7476;49.404;11.152;2023-03-21T14:21:44;22.10;93.20
14769;DHT22;7476;49.404;11.152;2023-03-21T14:24:13;22.20;93.00
14769;DHT22;7476;49.404;11.152;2023-03-21T14:26:42;21.90;93.60
14769;DHT22;7476;49.404;11.152;2023-03-21T14:29:18;21.60;94.20
14769;DHT22;7476;49.404;11.152;2023-03-21T14:31:47;21.20;94.40
14769;DHT22;7476;49.404;11.152;2023-03-21T14:34:14;20.50;95.20
14769;DHT22;7476;49.404;11.152;2023-03-21T14:36:43;19.70;96.10
14769;DHT22;7476;49.404;11.152;2023-03-21T14:39:13;19.40;97.00
14769;DHT22;7476;49.404;11.152;2023-03-21T14:41:46;19.80;97.00
14769;DHT22;7476;49.404;11.152;2023-03-21T14:44:16;20.40;97.00
14769;DHT22;7476;49.404;11.152;2023-03-21T14:46:51;20.70;96.20
14769;DHT22;7476;49.404;11.152;2023-03-21T14:49:20;20.40;96.40
14769;DHT22;7476;49.404;11.152;2023-03-21T14:51:52;20.20;96.30
14769;DHT22;7476;49.404;11.152;2023-03-21T14:54:19;19.60;97.40
14769;DHT22;7476;49.404;11.152;2023-03-21T14:56:49;19.30;97.30
14769;DHT22;7476;49.404;11.152;2023-03-21T14:59:20;19.10;98.10
14769;DHT22;7476;49.404;11.152;2023-03-21T15:01:50;19.40;97.30
14769;DHT22;7476;49.404;11.152;2023-03-21T15:04:17;19.70;97.30
14769;DHT22;7476;49.404;11.152;2023-03-21T15:06:54;19.90;97.00
14769;DHT22;7476;49.404;11.152;2023-03-21T15:09:24;19.70;96.70
14769;DHT22;7476;49.404;11.152;2023-03-21T15:11:52;19.50;97.00
14769;DHT22;7476;49.404;11.152;2023-03-21T15:14:23;19.20;97.60
14769;DHT22;7476;49.404;11.152;2023-03-21T15:16:53;19.30;98.00
14769;DHT22;7476;49.404;11.152;2023-03-21T15:19:24;19.40;98.20
14769;DHT22;7476;49.404;11.152;2023-03-21T15:21:56;19.00;98.00
14769;DHT22;7476;49.404;11.152;2023-03-21T15:24:26;18.70;98.40
14769;DHT22;7476;49.404;11.152;2023-03-21T15:26:58;18.50;99.00
14769;DHT22;7476;49.404;11.152;2023-03-21T15:29:26;18.30;99.50
14769;DHT22;7476;49.404;11.152;2023-03-21T15:31:54;18.20;99.90
14769;DHT22;7476;49.404;11.152;2023-03-21T15:34:22;18.10;99.50
14769;DHT22;7476;49.404;11.152;2023-03-21T15:36:55;18.20;99.70
14769;DHT22;7476;49.404;11.152;2023-03-21T15:39:23;18.20;99.50
14769;DHT22;7476;49.404;11.152;2023-03-21T15:42:02;18.10;99.90
14769;DHT22;7476;49.404;11.152;2023-03-21T15:44:30;17.70;99.90
14769;DHT22;7476;49.404;11.152;2023-03-21T15:46:59;17.40;99.90
14769;DHT22;7476;49.404;11.152;2023-03-21T15:49:28;17.20;99.90
14769;DHT22;7476;49.404;11.152;2023-03-21T15:52:02;17.20;99.90
14769;DHT22;7476;49.404;11.152;2023-03-21T15:54:32;17.10;99.90
14769;DHT22;7476;49.404;11.152;2023-03-21T15:57:03;17.00;99.90
14769;DHT22;7476;49.404;11.152;2023-03-21T15:59:35;16.90;99.90
14769;DHT22;7476;49.404;11.152;2023-03-21T16:02:14;16.80;99.90
14769;DHT22;7476;49.404;11.152;2023-03-21T16:04:54;16.70;99.90
14769;DHT22;7476;49.404;11.152;2023-03-21T16:07:23;16.50;99.90
14769;DHT22;7476;49.404;11.152;2023-03-21T16:09:57;16.50;99.90